sensor_id;sensor_type;location;lat;lon;timestamp;P1;durP1;ratioP1;P2;durP2;ratioP2
38609;SDS011;24367;51.640;9.566;2022-09-09T00:00:12;1.88;;;0.57;;
38609;SDS011;24367;51.640;9.566;2022-09-09T00:02:41;2.28;;;0.40;;
38609;SDS011;24367;51.640;9.566;2022-09-09T00:05:14;2.30;;;0.57;;
38609;SDS011;24367;51.640;9.566;2022-09-09T00:07:46;2.20;;;0.75;;
38609;SDS011;24367;51.640;9.566;2022-09-09T00:10:16;1.10;;;0.45;;
38609;SDS011;24367;51.640;9.566;2022-09-09T00:12:50;2.05;;;0.60;;
38609;SDS011;24367;51.640;9.566;2022-09-09T00:15:22;2.80;;;0.95;;
38609;SDS011;24367;51.640;9.566;2022-09-09T00:17:51;1.00;;;0.47;;
38609;SDS011;24367;51.640;9.566;2022-09-09T00:20:21;1.75;;;0.47;;
38609;SDS011;24367;51.640;9.566;2022-09-09T00:22:53;1.67;;;0.70;;
38609;SDS011;24367;51.640;9.566;2022-09-09T00:25:26;2.08;;;0.60;;
38609;SDS011;24367;51.640;9.566;2022-09-09T00:27:57;1.50;;;0.55;;
38609;SDS011;24367;51.640;9.566;2022-09-09T00:30:24;1.58;;;0.50;;
38609;SDS011;24367;51.640;9.566;2022-09-09T00:39:57;2.47;;;0.60;;
38609;SDS011;24367;51.640;9.566;2022-09-09T00:42:26;1.65;;;0.40;;
38609;SDS011;24367;51.640;9.566;2022-09-09T00:50:23;2.28;;;0.60;;
38609;SDS011;24367;51.640;9.566;2022-09-09T00:52:59;2.40;;;0.55;;
38609;SDS011;24367;51.640;9.566;2022-09-09T00:55:38;1.20;;;0.45;;
38609;SDS011;24367;51.640;9.566;2022-09-09T00:58:08;2.83;;;0.60;;
38609;SDS011;24367;51.640;9.566;2022-09-09T01:00:39;0.85;;;0.43;;
38609;SDS011;24367;51.640;9.566;2022-09-09T01:03:13;0.65;;;0.32;;
38609;SDS011;24367;51.640;9.566;2022-09-09T01:05:46;2.55;;;0.50;;
38609;SDS011;24367;51.640;9.566;2022-09-09T01:08:21;0.98;;;0.40;;
38609;SDS011;24367;51.640;9.566;2022-09-09T01:10:58;2.50;;;0.50;;
38609;SDS011;24367;51.640;9.566;2022-09-09T01:13:29;0.93;;;0.40;;
38609;SDS011;24367;51.640;9.566;2022-09-09T01:16:01;1.17;;;0.45;;
38609;SDS011;24367;51.640;9.566;2022-09-09T01:18:33;2.30;;;0.35;;
38609;SDS011;24367;51.640;9.566;2022-09-09T01:21:04;1.50;;;0.50;;
38609;SDS011;24367;51.640;9.566;2022-09-09T01:23:41;0.98;;;0.40;;
38609;SDS011;24367;51.640;9.566;2022-09-09T01:26:26;1.63;;;0.57;;
38609;SDS011;24367;51.640;9.566;2022-09-09T01:28:57;1.00;;;0.40;;
38609;SDS011;24367;51.640;9.566;2022-09-09T01:31:32;1.73;;;0.60;;
38609;SDS011;24367;51.640;9.566;2022-09-09T01:34:02;3.53;;;0.60;;
38609;SDS011;24367;51.640;9.566;2022-09-09T01:36:31;0.60;;;0.30;;
38609;SDS011;24367;51.640;9.566;2022-09-09T01:39:01;0.73;;;0.40;;
38609;SDS011;24367;51.640;9.566;2022-09-09T01:41:29;0.43;;;0.40;;
38609;SDS011;24367;51.640;9.566;2022-09-09T01:44:06;1.55;;;0.50;;
38609;SDS011;24367;51.640;9.566;2022-09-09T01:46:36;0.68;;;0.38;;
38609;SDS011;24367;51.640;9.566;2022-09-09T01:49:04;0.93;;;0.40;;
38609;SDS011;24367;51.640;9.566;2022-09-09T01:51:33;1.83;;;0.40;;
38609;SDS011;24367;51.640;9.566;2022-09-09T01:54:03;1.58;;;0.55;;
38609;SDS011;24367;51.640;9.566;2022-09-09T01:56:35;1.58;;;0.50;;
38609;SDS011;24367;51.640;9.566;2022-09-09T01:59:11;1.58;;;0.52;;
38609;SDS011;24367;51.640;9.566;2022-09-09T02:01:58;2.60;;;0.50;;
38609;SDS011;24367;51.640;9.566;2022-09-09T02:04:35;1.40;;;0.60;;
38609;SDS011;24367;51.640;9.566;2022-09-09T02:07:14;3.05;;;0.93;;
38609;SDS011;24367;51.640;9.566;2022-09-09T02:09:50;1.10;;;0.50;;
38609;SDS011;24367;51.640;9.566;2022-09-09T02:12:30;3.92;;;0.88;;
38609;SDS011;24367;51.640;9.566;2022-09-09T02:15:01;1.35;;;0.50;;
38609;SDS011;24367;51.640;9.566;2022-09-09T02:17:42;2.90;;;0.75;;
38609;SDS011;24367;51.640;9.566;2022-09-09T02:20:13;1.02;;;0.43;;
38609;SDS011;24367;51.640;9.566;2022-09-09T02:25:16;1.98;;;0.60;;
38609;SDS011;24367;51.640;9.566;2022-09-09T02:27:47;0.80;;;0.50;;
38609;SDS011;24367;51.640;9.566;2022-09-09T02:30:16;2.60;;;0.50;;
38609;SDS011;24367;51.640;9.566;2022-09-09T02:35:18;1.05;;;0.50;;
38609;SDS011;24367;51.640;9.566;2022-09-09T02:37:47;0.80;;;0.50;;
38609;SDS011;24367;51.640;9.566;2022-09-09T02:40:15;1.40;;;0.50;;
38609;SDS011;24367;51.640;9.566;2022-09-09T02:42:48;2.05;;;0.50;;
38609;SDS011;24367;51.640;9.566;2022-09-09T02:45:18;0.93;;;0.55;;
38609;SDS011;24367;51.640;9.566;2022-09-09T02:47:50;1.67;;;0.80;;
38609;SDS011;24367;51.640;9.566;2022-09-09T02:50:23;0.93;;;0.30;;
38609;SDS011;24367;51.640;9.566;2022-09-09T02:52:55;0.63;;;0.30;;
38609;SDS011;24367;51.640;9.566;2022-09-09T02:55:29;0.88;;;0.40;;
38609;SDS011;24367;51.640;9.566;2022-09-09T02:58:06;1.10;;;0.40;;
38609;SDS011;24367;51.640;9.566;2022-09-09T03:00:36;1.45;;;0.40;;
38609;SDS011;24367;51.640;9.566;2022-09-09T03:03:04;0.98;;;0.40;;
38609;SDS011;24367;51.640;9.566;2022-09-09T03:05:33;0.50;;;0.40;;
38609;SDS011;24367;51.640;9.566;2022-09-09T03:07:59;0.77;;;0.40;;
38609;SDS011;24367;51.640;9.566;2022-09-09T03:10:26;1.15;;;0.50;;
38609;SDS011;24367;51.640;9.566;2022-09-09T03:12:53;0.82;;;0.50;;
38609;SDS011;24367;51.640;9.566;2022-09-09T03:15:22;1.20;;;0.40;;
38609;SDS011;24367;51.640;9.566;2022-09-09T03:17:48;0.93;;;0.38;;
38609;SDS011;24367;51.640;9.566;2022-09-09T03:20:16;5.75;;;0.40;;
38609;SDS011;24367;51.640;9.566;2022-09-09T03:22:42;1.00;;;0.45;;
38609;SDS011;24367;51.640;9.566;2022-09-09T03:25:10;0.75;;;0.30;;
38609;SDS011;24367;51.640;9.566;2022-09-09T03:27:39;0.98;;;0.30;;
38609;SDS011;24367;51.640;9.566;2022-09-09T03:30:06;0.68;;;0.30;;
38609;SDS011;24367;51.640;9.566;2022-09-09T03:32:35;1.70;;;0.47;;
38609;SDS011;24367;51.640;9.566;2022-09-09T03:35:02;1.25;;;0.40;;
38609;SDS011;24367;51.640;9.566;2022-09-09T03:37:30;0.55;;;0.40;;
38609;SDS011;24367;51.640;9.566;2022-09-09T03:39:56;2.45;;;0.40;;
38609;SDS011;24367;51.640;9.566;2022-09-09T03:42:25;1.13;;;0.45;;
38609;SDS011;24367;51.640;9.566;2022-09-09T03:44:54;1.30;;;0.52;;
38609;SDS011;24367;51.640;9.566;2022-09-09T03:47:23;0.50;;;0.40;;
38609;SDS011;24367;51.640;9.566;2022-09-09T03:49:55;1.35;;;0.40;;
38609;SDS011;24367;51.640;9.566;2022-09-09T03:52:22;2.90;;;0.50;;
38609;SDS011;24367;51.640;9.566;2022-09-09T03:54:51;1.15;;;0.40;;
38609;SDS011;24367;51.640;9.566;2022-09-09T03:57:18;2.08;;;0.50;;
38609;SDS011;24367;51.640;9.566;2022-09-09T03:59:45;1.48;;;0.40;;
38609;SDS011;24367;51.640;9.566;2022-09-09T04:02:11;1.58;;;0.50;;
38609;SDS011;24367;51.640;9.566;2022-09-09T04:04:38;1.15;;;0.40;;
38609;SDS011;24367;51.640;9.566;2022-09-09T04:07:06;1.13;;;0.40;;
38609;SDS011;24367;51.640;9.566;2022-09-09T04:09:32;1.50;;;0.50;;
38609;SDS011;24367;51.640;9.566;2022-09-09T04:11:59;1.25;;;0.57;;
38609;SDS011;24367;51.640;9.566;2022-09-09T04:14:28;1.33;;;0.47;;
38609;SDS011;24367;51.640;9.566;2022-09-09T04:16:55;1.75;;;0.50;;
38609;SDS011;24367;51.640;9.566;2022-09-09T04:19:24;0.70;;;0.40;;
38609;SDS011;24367;51.640;9.566;2022-09-09T04:21:50;0.98;;;0.40;;
38609;SDS011;24367;51.640;9.566;2022-09-09T04:24:20;2.22;;;0.50;;
38609;SDS011;24367;51.640;9.566;2022-09-09T04:26:47;1.05;;;0.40;;
38609;SDS011;24367;51.640;9.566;2022-09-09T04:29:14;3.13;;;0.60;;
38609;SDS011;24367;51.640;9.566;2022-09-09T04:31:40;0.60;;;0.40;;
38609;SDS011;24367;51.640;9.566;2022-09-09T04:34:07;1.85;;;0.50;;
38609;SDS011;24367;51.640;9.566;2022-09-09T04:36:34;1.15;;;0.40;;
38609;SDS011;24367;51.640;9.566;2022-09-09T04:39:03;0.82;;;0.50;;
38609;SDS011;24367;51.640;9.566;2022-09-09T04:41:31;1.30;;;0.50;;
38609;SDS011;24367;51.640;9.566;2022-09-09T04:43:58;1.58;;;0.50;;
38609;SDS011;24367;51.640;9.566;2022-09-09T04:46:26;0.77;;;0.40;;
38609;SDS011;24367;51.640;9.566;2022-09-09T04:48:52;0.88;;;0.50;;
38609;SDS011;24367;51.640;9.566;2022-09-09T04:51:22;2.35;;;0.47;;
38609;SDS011;24367;51.640;9.566;2022-09-09T04:53:50;0.85;;;0.45;;
38609;SDS011;24367;51.640;9.566;2022-09-09T04:56:19;1.60;;;0.60;;
38609;SDS011;24367;51.640;9.566;2022-09-09T04:58:51;1.25;;;0.60;;
38609;SDS011;24367;51.640;9.566;2022-09-09T05:01:21;1.25;;;0.55;;
38609;SDS011;24367;51.640;9.566;2022-09-09T05:03:50;1.42;;;0.50;;
38609;SDS011;24367;51.640;9.566;2022-09-09T05:06:20;0.80;;;0.43;;
38609;SDS011;24367;51.640;9.566;2022-09-09T05:08:50;1.40;;;0.40;;
38609;SDS011;24367;51.640;9.566;2022-09-09T05:11:22;2.25;;;0.50;;
38609;SDS011;24367;51.640;9.566;2022-09-09T05:13:53;1.00;;;0.30;;
38609;SDS011;24367;51.640;9.566;2022-09-09T05:16:20;1.52;;;0.30;;
38609;SDS011;24367;51.640;9.566;2022-09-09T05:18:47;1.50;;;0.70;;
38609;SDS011;24367;51.640;9.566;2022-09-09T05:21:17;1.00;;;0.50;;
38609;SDS011;24367;51.640;9.566;2022-09-09T05:23:45;0.80;;;0.43;;
38609;SDS011;24367;51.640;9.566;2022-09-09T05:26:13;1.77;;;0.47;;
38609;SDS011;24367;51.640;9.566;2022-09-09T05:28:40;1.02;;;0.55;;
38609;SDS011;24367;51.640;9.566;2022-09-09T05:31:08;1.40;;;0.47;;
38609;SDS011;24367;51.640;9.566;2022-09-09T05:33:37;2.65;;;0.70;;
38609;SDS011;24367;51.640;9.566;2022-09-09T05:36:06;1.77;;;0.50;;
38609;SDS011;24367;51.640;9.566;2022-09-09T05:38:35;1.23;;;0.50;;
38609;SDS011;24367;51.640;9.566;2022-09-09T05:41:03;1.92;;;0.60;;
38609;SDS011;24367;51.640;9.566;2022-09-09T05:43:30;2.05;;;0.68;;
38609;SDS011;24367;51.640;9.566;2022-09-09T05:46:01;1.40;;;0.50;;
38609;SDS011;24367;51.640;9.566;2022-09-09T05:48:31;2.95;;;0.60;;
38609;SDS011;24367;51.640;9.566;2022-09-09T05:50:59;4.22;;;0.80;;
38609;SDS011;24367;51.640;9.566;2022-09-09T05:53:26;0.95;;;0.50;;
38609;SDS011;24367;51.640;9.566;2022-09-09T05:55:59;2.45;;;0.60;;
38609;SDS011;24367;51.640;9.566;2022-09-09T05:58:28;1.77;;;0.50;;
38609;SDS011;24367;51.640;9.566;2022-09-09T06:01:00;1.33;;;0.47;;
38609;SDS011;24367;51.640;9.566;2022-09-09T06:03:27;3.17;;;0.50;;
38609;SDS011;24367;51.640;9.566;2022-09-09T06:05:58;3.20;;;0.80;;
38609;SDS011;24367;51.640;9.566;2022-09-09T06:08:26;1.65;;;0.60;;
38609;SDS011;24367;51.640;9.566;2022-09-09T06:10:53;2.25;;;0.40;;
38609;SDS011;24367;51.640;9.566;2022-09-09T06:13:21;1.52;;;0.68;;
38609;SDS011;24367;51.640;9.566;2022-09-09T06:15:51;2.30;;;0.55;;
38609;SDS011;24367;51.640;9.566;2022-09-09T06:18:18;0.98;;;0.43;;
38609;SDS011;24367;51.640;9.566;2022-09-09T06:20:53;1.88;;;0.50;;
38609;SDS011;24367;51.640;9.566;2022-09-09T06:23:21;1.33;;;0.47;;
38609;SDS011;24367;51.640;9.566;2022-09-09T06:25:48;2.38;;;0.60;;
38609;SDS011;24367;51.640;9.566;2022-09-09T06:28:15;2.15;;;0.60;;
38609;SDS011;24367;51.640;9.566;2022-09-09T06:30:42;1.08;;;0.50;;
38609;SDS011;24367;51.640;9.566;2022-09-09T06:33:09;0.70;;;0.50;;
38609;SDS011;24367;51.640;9.566;2022-09-09T06:35:36;0.88;;;0.50;;
38609;SDS011;24367;51.640;9.566;2022-09-09T06:38:02;1.05;;;0.55;;
38609;SDS011;24367;51.640;9.566;2022-09-09T06:40:31;1.63;;;0.50;;
38609;SDS011;24367;51.640;9.566;2022-09-09T06:42:59;1.98;;;0.60;;
38609;SDS011;24367;51.640;9.566;2022-09-09T06:45:37;1.65;;;0.50;;
38609;SDS011;24367;51.640;9.566;2022-09-09T06:48:04;1.00;;;0.52;;
38609;SDS011;24367;51.640;9.566;2022-09-09T06:50:30;2.15;;;0.50;;
38609;SDS011;24367;51.640;9.566;2022-09-09T06:52:57;1.45;;;0.57;;
38609;SDS011;24367;51.640;9.566;2022-09-09T06:55:24;1.20;;;0.50;;
38609;SDS011;24367;51.640;9.566;2022-09-09T06:57:52;1.45;;;0.50;;
38609;SDS011;24367;51.640;9.566;2022-09-09T07:00:21;1.15;;;0.50;;
38609;SDS011;24367;51.640;9.566;2022-09-09T07:02:50;1.25;;;0.45;;
38609;SDS011;24367;51.640;9.566;2022-09-09T07:05:17;3.60;;;0.70;;
38609;SDS011;24367;51.640;9.566;2022-09-09T07:07:45;1.30;;;0.50;;
38609;SDS011;24367;51.640;9.566;2022-09-09T07:10:14;0.75;;;0.40;;
38609;SDS011;24367;51.640;9.566;2022-09-09T07:12:40;0.60;;;0.45;;
38609;SDS011;24367;51.640;9.566;2022-09-09T07:15:11;1.25;;;0.50;;
38609;SDS011;24367;51.640;9.566;2022-09-09T07:17:42;1.48;;;0.60;;
38609;SDS011;24367;51.640;9.566;2022-09-09T07:20:09;0.95;;;0.43;;
38609;SDS011;24367;51.640;9.566;2022-09-09T07:22:35;1.20;;;0.50;;
38609;SDS011;24367;51.640;9.566;2022-09-09T07:25:02;0.88;;;0.50;;
38609;SDS011;24367;51.640;9.566;2022-09-09T07:27:29;1.48;;;0.52;;
38609;SDS011;24367;51.640;9.566;2022-09-09T07:29:55;1.65;;;0.60;;
38609;SDS011;24367;51.640;9.566;2022-09-09T07:32:25;1.73;;;0.70;;
38609;SDS011;24367;51.640;9.566;2022-09-09T07:34:52;1.27;;;0.55;;
38609;SDS011;24367;51.640;9.566;2022-09-09T07:37:19;1.10;;;0.50;;
38609;SDS011;24367;51.640;9.566;2022-09-09T07:39:47;1.70;;;0.60;;
38609;SDS011;24367;51.640;9.566;2022-09-09T07:42:16;1.55;;;0.52;;
38609;SDS011;24367;51.640;9.566;2022-09-09T07:44:42;1.02;;;0.57;;
38609;SDS011;24367;51.640;9.566;2022-09-09T07:47:12;1.10;;;0.55;;
38609;SDS011;24367;51.640;9.566;2022-09-09T07:49:44;1.50;;;0.60;;
38609;SDS011;24367;51.640;9.566;2022-09-09T07:52:14;1.33;;;0.50;;
38609;SDS011;24367;51.640;9.566;2022-09-09T07:54:44;2.42;;;0.60;;
38609;SDS011;24367;51.640;9.566;2022-09-09T07:57:12;1.45;;;0.50;;
38609;SDS011;24367;51.640;9.566;2022-09-09T07:59:38;1.98;;;0.68;;
38609;SDS011;24367;51.640;9.566;2022-09-09T08:02:08;2.08;;;0.45;;
38609;SDS011;24367;51.640;9.566;2022-09-09T08:04:35;1.33;;;0.50;;
38609;SDS011;24367;51.640;9.566;2022-09-09T08:07:03;1.63;;;0.60;;
38609;SDS011;24367;51.640;9.566;2022-09-09T08:09:36;2.00;;;0.60;;
38609;SDS011;24367;51.640;9.566;2022-09-09T08:12:11;2.10;;;0.50;;
38609;SDS011;24367;51.640;9.566;2022-09-09T08:14:38;1.33;;;0.73;;
38609;SDS011;24367;51.640;9.566;2022-09-09T08:17:05;1.48;;;0.50;;
38609;SDS011;24367;51.640;9.566;2022-09-09T08:19:32;1.98;;;0.65;;
38609;SDS011;24367;51.640;9.566;2022-09-09T08:22:01;2.40;;;0.60;;
38609;SDS011;24367;51.640;9.566;2022-09-09T08:24:30;1.10;;;0.60;;
38609;SDS011;24367;51.640;9.566;2022-09-09T08:26:56;2.22;;;0.82;;
38609;SDS011;24367;51.640;9.566;2022-09-09T08:29:23;2.08;;;0.75;;
38609;SDS011;24367;51.640;9.566;2022-09-09T08:31:52;1.30;;;0.60;;
38609;SDS011;24367;51.640;9.566;2022-09-09T08:34:22;2.42;;;0.70;;
38609;SDS011;24367;51.640;9.566;2022-09-09T08:36:50;2.33;;;0.80;;
38609;SDS011;24367;51.640;9.566;2022-09-09T08:39:20;1.83;;;0.77;;
38609;SDS011;24367;51.640;9.566;2022-09-09T08:41:54;2.38;;;0.85;;
38609;SDS011;24367;51.640;9.566;2022-09-09T08:44:37;1.97;;;0.70;;
38609;SDS011;24367;51.640;9.566;2022-09-09T08:47:13;1.50;;;0.70;;
38609;SDS011;24367;51.640;9.566;2022-09-09T08:49:48;2.65;;;1.00;;
38609;SDS011;24367;51.640;9.566;2022-09-09T08:52:23;1.73;;;0.70;;
38609;SDS011;24367;51.640;9.566;2022-09-09T08:54:53;2.97;;;1.05;;
38609;SDS011;24367;51.640;9.566;2022-09-09T08:57:25;3.42;;;0.52;;
38609;SDS011;24367;51.640;9.566;2022-09-09T08:59:53;3.38;;;0.60;;
38609;SDS011;24367;51.640;9.566;2022-09-09T09:02:21;2.35;;;0.95;;
38609;SDS011;24367;51.640;9.566;2022-09-09T09:04:54;10.05;;;0.90;;
38609;SDS011;24367;51.640;9.566;2022-09-09T09:07:28;2.47;;;0.85;;
38609;SDS011;24367;51.640;9.566;2022-09-09T09:10:07;2.78;;;1.02;;
38609;SDS011;24367;51.640;9.566;2022-09-09T09:12:40;2.53;;;0.82;;
38609;SDS011;24367;51.640;9.566;2022-09-09T09:15:11;3.42;;;0.93;;
38609;SDS011;24367;51.640;9.566;2022-09-09T09:17:42;2.25;;;0.90;;
38609;SDS011;24367;51.640;9.566;2022-09-09T09:20:11;3.55;;;1.23;;
38609;SDS011;24367;51.640;9.566;2022-09-09T09:22:43;2.67;;;0.90;;
38609;SDS011;24367;51.640;9.566;2022-09-09T09:25:15;5.72;;;1.10;;
38609;SDS011;24367;51.640;9.566;2022-09-09T09:27:49;4.68;;;1.30;;
38609;SDS011;24367;51.640;9.566;2022-09-09T09:30:21;2.88;;;1.02;;
38609;SDS011;24367;51.640;9.566;2022-09-09T09:32:51;3.60;;;1.25;;
38609;SDS011;24367;51.640;9.566;2022-09-09T09:35:20;3.80;;;1.08;;
38609;SDS011;24367;51.640;9.566;2022-09-09T09:37:47;4.43;;;1.00;;
38609;SDS011;24367;51.640;9.566;2022-09-09T09:40:14;2.08;;;0.95;;
38609;SDS011;24367;51.640;9.566;2022-09-09T09:42:49;4.72;;;1.27;;
38609;SDS011;24367;51.640;9.566;2022-09-09T09:45:23;5.78;;;1.20;;
38609;SDS011;24367;51.640;9.566;2022-09-09T09:47:59;3.15;;;1.17;;
38609;SDS011;24367;51.640;9.566;2022-09-09T09:50:29;3.67;;;1.10;;
38609;SDS011;24367;51.640;9.566;2022-09-09T09:52:57;5.70;;;1.20;;
38609;SDS011;24367;51.640;9.566;2022-09-09T09:55:26;3.83;;;1.30;;
38609;SDS011;24367;51.640;9.566;2022-09-09T09:58:01;3.40;;;1.17;;
38609;SDS011;24367;51.640;9.566;2022-09-09T10:00:29;4.18;;;1.33;;
38609;SDS011;24367;51.640;9.566;2022-09-09T10:03:12;3.75;;;1.35;;
38609;SDS011;24367;51.640;9.566;2022-09-09T10:05:44;3.88;;;1.20;;
38609;SDS011;24367;51.640;9.566;2022-09-09T10:08:12;3.25;;;1.20;;
38609;SDS011;24367;51.640;9.566;2022-09-09T10:10:46;3.05;;;0.93;;
38609;SDS011;24367;51.640;9.566;2022-09-09T10:13:22;3.28;;;1.08;;
38609;SDS011;24367;51.640;9.566;2022-09-09T10:15:55;4.80;;;1.33;;
38609;SDS011;24367;51.640;9.566;2022-09-09T10:18:35;3.58;;;1.30;;
38609;SDS011;24367;51.640;9.566;2022-09-09T10:21:10;2.65;;;0.90;;
38609;SDS011;24367;51.640;9.566;2022-09-09T10:23:46;3.28;;;1.27;;
38609;SDS011;24367;51.640;9.566;2022-09-09T10:26:26;4.30;;;1.27;;
38609;SDS011;24367;51.640;9.566;2022-09-09T10:31:49;3.50;;;1.15;;
38609;SDS011;24367;51.640;9.566;2022-09-09T10:34:24;2.95;;;1.02;;
38609;SDS011;24367;51.640;9.566;2022-09-09T10:37:01;4.03;;;1.08;;
38609;SDS011;24367;51.640;9.566;2022-09-09T10:39:37;4.25;;;1.30;;
38609;SDS011;24367;51.640;9.566;2022-09-09T10:42:06;3.00;;;1.02;;
38609;SDS011;24367;51.640;9.566;2022-09-09T10:44:38;3.22;;;1.20;;
38609;SDS011;24367;51.640;9.566;2022-09-09T10:47:17;4.53;;;1.23;;
38609;SDS011;24367;51.640;9.566;2022-09-09T10:50:00;3.20;;;1.20;;
38609;SDS011;24367;51.640;9.566;2022-09-09T10:52:36;4.80;;;1.63;;
38609;SDS011;24367;51.640;9.566;2022-09-09T10:55:09;3.40;;;1.20;;
38609;SDS011;24367;51.640;9.566;2022-09-09T10:57:37;5.15;;;1.33;;
38609;SDS011;24367;51.640;9.566;2022-09-09T11:00:14;4.00;;;1.30;;
38609;SDS011;24367;51.640;9.566;2022-09-09T11:02:42;4.05;;;1.10;;
38609;SDS011;24367;51.640;9.566;2022-09-09T11:05:10;3.30;;;1.10;;
38609;SDS011;24367;51.640;9.566;2022-09-09T11:07:41;4.20;;;1.40;;
38609;SDS011;24367;51.640;9.566;2022-09-09T11:10:17;4.13;;;1.00;;
38609;SDS011;24367;51.640;9.566;2022-09-09T11:12:45;3.45;;;1.30;;
38609;SDS011;24367;51.640;9.566;2022-09-09T11:15:16;4.72;;;0.82;;
38609;SDS011;24367;51.640;9.566;2022-09-09T11:17:46;4.53;;;1.20;;
38609;SDS011;24367;51.640;9.566;2022-09-09T11:20:14;4.15;;;1.45;;
38609;SDS011;24367;51.640;9.566;2022-09-09T11:22:43;4.00;;;1.40;;
38609;SDS011;24367;51.640;9.566;2022-09-09T11:25:14;5.93;;;1.40;;
38609;SDS011;24367;51.640;9.566;2022-09-09T11:27:44;3.38;;;0.88;;
38609;SDS011;24367;51.640;9.566;2022-09-09T11:30:20;5.20;;;1.50;;
38609;SDS011;24367;51.640;9.566;2022-09-09T11:32:58;3.80;;;1.15;;
38609;SDS011;24367;51.640;9.566;2022-09-09T11:35:45;5.60;;;1.33;;
38609;SDS011;24367;51.640;9.566;2022-09-09T11:38:21;4.70;;;1.20;;
38609;SDS011;24367;51.640;9.566;2022-09-09T11:40:55;3.92;;;1.13;;
38609;SDS011;24367;51.640;9.566;2022-09-09T11:43:25;4.22;;;1.23;;
38609;SDS011;24367;51.640;9.566;2022-09-09T11:45:55;4.45;;;1.20;;
38609;SDS011;24367;51.640;9.566;2022-09-09T11:48:26;3.67;;;1.05;;
38609;SDS011;24367;51.640;9.566;2022-09-09T11:50:59;3.90;;;1.10;;
38609;SDS011;24367;51.640;9.566;2022-09-09T11:53:30;3.55;;;1.13;;
38609;SDS011;24367;51.640;9.566;2022-09-09T11:56:07;4.88;;;1.23;;
38609;SDS011;24367;51.640;9.566;2022-09-09T11:58:40;3.45;;;1.02;;
38609;SDS011;24367;51.640;9.566;2022-09-09T12:01:15;6.70;;;1.08;;
38609;SDS011;24367;51.640;9.566;2022-09-09T12:03:55;6.45;;;1.40;;
38609;SDS011;24367;51.640;9.566;2022-09-09T12:06:54;3.30;;;1.10;;
38609;SDS011;24367;51.640;9.566;2022-09-09T12:09:24;4.45;;;1.15;;
38609;SDS011;24367;51.640;9.566;2022-09-09T12:12:04;4.57;;;0.90;;
38609;SDS011;24367;51.640;9.566;2022-09-09T12:14:34;3.30;;;1.13;;
38609;SDS011;24367;51.640;9.566;2022-09-09T12:17:10;5.53;;;1.20;;
38609;SDS011;24367;51.640;9.566;2022-09-09T12:19:45;9.50;;;1.63;;
38609;SDS011;24367;51.640;9.566;2022-09-09T12:22:14;3.28;;;0.88;;
38609;SDS011;24367;51.640;9.566;2022-09-09T12:24:46;5.70;;;1.00;;
38609;SDS011;24367;51.640;9.566;2022-09-09T12:27:17;3.00;;;0.80;;
38609;SDS011;24367;51.640;9.566;2022-09-09T12:29:47;5.35;;;1.38;;
38609;SDS011;24367;51.640;9.566;2022-09-09T12:32:22;3.20;;;1.00;;
38609;SDS011;24367;51.640;9.566;2022-09-09T12:34:49;4.05;;;1.15;;
38609;SDS011;24367;51.640;9.566;2022-09-09T12:37:21;3.97;;;1.15;;
38609;SDS011;24367;51.640;9.566;2022-09-09T12:39:53;4.57;;;1.33;;
38609;SDS011;24367;51.640;9.566;2022-09-09T12:42:22;4.88;;;1.05;;
38609;SDS011;24367;51.640;9.566;2022-09-09T12:44:53;5.20;;;1.58;;
38609;SDS011;24367;51.640;9.566;2022-09-09T12:47:22;6.10;;;0.93;;
38609;SDS011;24367;51.640;9.566;2022-09-09T12:49:52;4.57;;;1.50;;
38609;SDS011;24367;51.640;9.566;2022-09-09T12:52:23;4.88;;;1.08;;
38609;SDS011;24367;51.640;9.566;2022-09-09T12:54:55;7.88;;;1.23;;
38609;SDS011;24367;51.640;9.566;2022-09-09T12:57:22;3.75;;;0.95;;
38609;SDS011;24367;51.640;9.566;2022-09-09T12:59:50;3.15;;;1.13;;
38609;SDS011;24367;51.640;9.566;2022-09-09T13:02:19;2.72;;;1.00;;
38609;SDS011;24367;51.640;9.566;2022-09-09T13:04:48;3.20;;;0.85;;
38609;SDS011;24367;51.640;9.566;2022-09-09T13:07:15;17.67;;;2.05;;
38609;SDS011;24367;51.640;9.566;2022-09-09T13:09:43;5.70;;;1.30;;
38609;SDS011;24367;51.640;9.566;2022-09-09T13:12:12;6.03;;;1.30;;
38609;SDS011;24367;51.640;9.566;2022-09-09T13:14:42;4.72;;;1.10;;
38609;SDS011;24367;51.640;9.566;2022-09-09T13:17:15;9.80;;;1.40;;
38609;SDS011;24367;51.640;9.566;2022-09-09T13:19:44;6.03;;;1.17;;
38609;SDS011;24367;51.640;9.566;2022-09-09T13:22:13;5.43;;;1.33;;
38609;SDS011;24367;51.640;9.566;2022-09-09T13:24:40;5.30;;;1.10;;
38609;SDS011;24367;51.640;9.566;2022-09-09T13:27:21;4.25;;;1.17;;
38609;SDS011;24367;51.640;9.566;2022-09-09T13:29:51;2.55;;;0.88;;
38609;SDS011;24367;51.640;9.566;2022-09-09T13:32:21;6.50;;;1.23;;
38609;SDS011;24367;51.640;9.566;2022-09-09T13:34:50;7.47;;;1.33;;
38609;SDS011;24367;51.640;9.566;2022-09-09T13:37:19;6.18;;;1.40;;
38609;SDS011;24367;51.640;9.566;2022-09-09T13:39:51;11.87;;;1.73;;
38609;SDS011;24367;51.640;9.566;2022-09-09T13:42:21;18.63;;;1.70;;
38609;SDS011;24367;51.640;9.566;2022-09-09T13:44:51;9.57;;;1.10;;
38609;SDS011;24367;51.640;9.566;2022-09-09T13:47:18;9.00;;;1.60;;
38609;SDS011;24367;51.640;9.566;2022-09-09T13:49:46;16.52;;;1.90;;
38609;SDS011;24367;51.640;9.566;2022-09-09T13:52:13;6.90;;;1.55;;
38609;SDS011;24367;51.640;9.566;2022-09-09T13:54:41;10.95;;;1.23;;
38609;SDS011;24367;51.640;9.566;2022-09-09T13:57:13;13.20;;;2.10;;
38609;SDS011;24367;51.640;9.566;2022-09-09T13:59:43;9.30;;;1.65;;
38609;SDS011;24367;51.640;9.566;2022-09-09T14:02:09;8.02;;;1.65;;
38609;SDS011;24367;51.640;9.566;2022-09-09T14:04:36;5.32;;;1.40;;
38609;SDS011;24367;51.640;9.566;2022-09-09T14:07:07;9.23;;;1.88;;
38609;SDS011;24367;51.640;9.566;2022-09-09T14:09:35;13.43;;;1.70;;
38609;SDS011;24367;51.640;9.566;2022-09-09T14:12:03;6.93;;;2.35;;
38609;SDS011;24367;51.640;9.566;2022-09-09T14:14:30;6.20;;;1.25;;
38609;SDS011;24367;51.640;9.566;2022-09-09T14:16:56;4.57;;;1.05;;
38609;SDS011;24367;51.640;9.566;2022-09-09T14:19:23;7.70;;;1.30;;
38609;SDS011;24367;51.640;9.566;2022-09-09T14:21:49;8.50;;;1.35;;
38609;SDS011;24367;51.640;9.566;2022-09-09T14:24:15;5.88;;;1.42;;
38609;SDS011;24367;51.640;9.566;2022-09-09T14:26:42;6.50;;;1.27;;
38609;SDS011;24367;51.640;9.566;2022-09-09T14:29:10;7.55;;;1.25;;
38609;SDS011;24367;51.640;9.566;2022-09-09T14:31:37;5.93;;;1.65;;
38609;SDS011;24367;51.640;9.566;2022-09-09T14:34:03;6.78;;;1.25;;
38609;SDS011;24367;51.640;9.566;2022-09-09T14:36:30;7.40;;;1.45;;
38609;SDS011;24367;51.640;9.566;2022-09-09T14:38:56;5.93;;;1.30;;
38609;SDS011;24367;51.640;9.566;2022-09-09T14:41:23;7.40;;;1.45;;
38609;SDS011;24367;51.640;9.566;2022-09-09T14:43:50;6.22;;;1.08;;
38609;SDS011;24367;51.640;9.566;2022-09-09T14:46:19;4.80;;;1.00;;
38609;SDS011;24367;51.640;9.566;2022-09-09T14:48:45;4.13;;;1.10;;
38609;SDS011;24367;51.640;9.566;2022-09-09T14:51:14;5.47;;;1.20;;
38609;SDS011;24367;51.640;9.566;2022-09-09T14:53:42;4.85;;;1.20;;
38609;SDS011;24367;51.640;9.566;2022-09-09T14:56:09;4.93;;;1.00;;
38609;SDS011;24367;51.640;9.566;2022-09-09T14:58:37;4.25;;;1.27;;
38609;SDS011;24367;51.640;9.566;2022-09-09T15:01:04;4.30;;;0.88;;
38609;SDS011;24367;51.640;9.566;2022-09-09T15:03:32;4.00;;;1.40;;
38609;SDS011;24367;51.640;9.566;2022-09-09T15:06:04;3.30;;;0.90;;
38609;SDS011;24367;51.640;9.566;2022-09-09T15:08:31;4.05;;;1.10;;
38609;SDS011;24367;51.640;9.566;2022-09-09T15:11:00;2.58;;;0.90;;
38609;SDS011;24367;51.640;9.566;2022-09-09T15:13:29;3.65;;;1.10;;
38609;SDS011;24367;51.640;9.566;2022-09-09T15:15:55;4.18;;;1.00;;
38609;SDS011;24367;51.640;9.566;2022-09-09T15:18:23;3.72;;;1.17;;
38609;SDS011;24367;51.640;9.566;2022-09-09T15:20:51;2.83;;;0.90;;
38609;SDS011;24367;51.640;9.566;2022-09-09T15:23:18;3.10;;;1.00;;
38609;SDS011;24367;51.640;9.566;2022-09-09T15:25:51;3.10;;;0.80;;